Time;durP1;ratioP1;P1;durP2;ratioP2;P2;SDS_P1;SDS_P2;PMS_P1;PMS_P2;Temp;Humidity;BMP_temperature;BMP_pressure;BME280_temperature;BME280_humidity;BME280_pressure;Samples;Min_cycle;Max_cycle;Signal;HPM_P1;HPM_P2
2023/12/26 00:00:14;;;;;;;2.28;1.02;;;12.90;63.30;;;;;;5052703;28;20064;-68
2023/12/26 00:02:40;;;;;;;1.25;0.95;;;12.80;62.80;;;;;;5052821;28;20024;-67
2023/12/26 00:05:06;;;;;;;1.00;0.80;;;12.80;62.80;;;;;;5052209;28;20025;-66
2023/12/26 00:07:31;;;;;;;1.20;0.85;;;12.80;62.80;;;;;;5052747;28;20079;-68
2023/12/26 00:09:57;;;;;;;1.80;1.00;;;12.80;62.80;;;;;;5052137;28;20159;-68
2023/12/26 00:12:25;;;;;;;1.55;1.08;;;12.80;62.80;;;;;;5052660;28;20466;-67
2023/12/26 00:14:51;;;;;;;1.58;1.20;;;12.80;62.70;;;;;;5052096;28;20381;-68
2023/12/26 00:17:17;;;;;;;1.65;1.08;;;12.80;63.00;;;;;;5052379;28;20043;-66
2023/12/26 00:19:43;;;;;;;1.55;1.10;;;12.80;63.30;;;;;;5052488;28;20025;-66
2023/12/26 00:22:09;;;;;;;1.95;1.00;;;12.80;63.40;;;;;;5051972;28;20056;-66
2023/12/26 00:24:34;;;;;;;1.80;0.90;;;12.80;63.50;;;;;;5052056;28;20040;-66
2023/12/26 00:27:00;;;;;;;1.67;0.95;;;12.90;63.50;;;;;;5051691;28;20028;-67
2023/12/26 00:29:26;;;;;;;1.92;1.20;;;12.80;63.20;;;;;;5052181;28;20036;-66
2023/12/26 00:31:51;;;;;;;2.00;1.10;;;12.90;63.10;;;;;;5051804;28;20462;-66
2023/12/26 00:34:17;;;;;;;1.50;1.00;;;12.80;63.00;;;;;;5051467;28;20025;-66
2023/12/26 00:36:42;;;;;;;3.08;0.95;;;12.80;62.70;;;;;;5052189;28;20033;-66
2023/12/26 00:39:08;;;;;;;2.45;0.98;;;12.90;62.40;;;;;;5051436;28;20381;-68
2023/12/26 00:41:34;;;;;;;2.88;1.05;;;12.80;62.50;;;;;;5052210;28;20091;-68
2023/12/26 00:43:59;;;;;;;1.20;0.93;;;12.90;62.30;;;;;;5052031;28;20025;-67
2023/12/26 00:46:25;;;;;;;1.75;1.13;;;12.90;62.30;;;;;;5052171;28;20136;-68
2023/12/26 00:48:51;;;;;;;2.60;1.15;;;12.90;62.00;;;;;;5067388;28;20025;-68
2023/12/26 00:51:16;;;;;;;2.22;1.10;;;12.90;61.90;;;;;;5071417;28;20119;-67
2023/12/26 00:53:42;;;;;;;1.10;0.90;;;12.90;61.70;;;;;;5072011;28;20107;-67
2023/12/26 00:56:07;;;;;;;3.13;1.08;;;12.90;61.50;;;;;;5071411;28;20111;-67
2023/12/26 00:58:33;;;;;;;1.33;0.80;;;12.90;61.50;;;;;;5071805;28;20036;-68
2023/12/26 01:00:59;;;;;;;3.13;1.08;;;12.90;61.30;;;;;;5071468;28;20095;-67
2023/12/26 01:03:25;;;;;;;0.95;0.80;;;13.00;61.20;;;;;;5071674;28;20120;-67
2023/12/26 01:05:51;;;;;;;1.48;0.90;;;13.00;61.00;;;;;;5072030;28;20041;-67
2023/12/26 01:08:18;;;;;;;1.20;1.00;;;13.00;60.60;;;;;;5071621;28;20064;-67
2023/12/26 01:10:44;;;;;;;1.08;0.90;;;13.00;60.80;;;;;;5071907;28;20035;-67
2023/12/26 01:13:09;;;;;;;1.65;0.85;;;13.10;60.80;;;;;;5071602;28;20465;-66
2023/12/26 01:15:35;;;;;;;2.00;0.90;;;13.10;60.70;;;;;;5072046;28;20035;-67
2023/12/26 01:18:01;;;;;;;1.63;0.80;;;13.20;60.60;;;;;;5071806;28;20422;-67
2023/12/26 01:20:27;;;;;;;1.52;0.80;;;13.20;60.60;;;;;;5071912;28;20364;-67
2023/12/26 01:22:52;;;;;;;1.10;0.68;;;13.20;60.50;;;;;;5073632;28;20028;-67
2023/12/26 01:25:18;;;;;;;1.20;0.80;;;13.20;60.40;;;;;;5071429;28;20032;-66
2023/12/26 01:27:44;;;;;;;1.10;0.70;;;13.30;60.10;;;;;;5055451;28;20516;-67
2023/12/26 01:30:10;;;;;;;1.60;0.70;;;13.30;60.00;;;;;;5055258;28;20020;-67
2023/12/26 01:32:35;;;;;;;1.70;0.70;;;13.30;59.80;;;;;;5055743;28;20052;-67
2023/12/26 01:35:01;;;;;;;1.10;0.70;;;13.30;59.50;;;;;;5055065;28;20355;-68
2023/12/26 01:37:27;;;;;;;0.70;0.60;;;13.40;59.40;;;;;;5055462;28;20036;-67
2023/12/26 01:39:52;;;;;;;1.05;0.70;;;13.40;59.20;;;;;;5055140;28;20102;-67
2023/12/26 01:42:18;;;;;;;1.42;0.70;;;13.40;58.90;;;;;;5054720;28;20068;-67
2023/12/26 01:44:44;;;;;;;1.00;0.80;;;13.40;58.80;;;;;;5055384;28;20033;-66
2023/12/26 01:47:11;;;;;;;0.98;0.70;;;13.40;58.70;;;;;;5053553;28;20079;-67
2023/12/26 01:49:37;;;;;;;19.98;1.55;;;13.30;58.50;;;;;;5055147;28;20021;-67
2023/12/26 01:52:05;;;;;;;0.82;0.70;;;13.30;58.70;;;;;;5054855;28;20021;-67
2023/12/26 01:54:33;;;;;;;1.10;0.77;;;13.30;58.90;;;;;;5055059;28;20033;-66
2023/12/26 01:56:59;;;;;;;1.20;0.88;;;13.30;59.20;;;;;;5054978;28;20021;-67
2023/12/26 01:59:25;;;;;;;1.65;0.82;;;13.30;59.50;;;;;;5054596;28;20049;-67
2023/12/26 02:01:51;;;;;;;2.55;1.05;;;13.20;59.80;;;;;;5054986;28;20064;-68
2023/12/26 02:04:17;;;;;;;1.58;0.85;;;13.20;60.20;;;;;;5054481;28;20068;-67
2023/12/26 02:06:42;;;;;;;2.45;0.98;;;13.20;60.80;;;;;;5055095;28;20029;-67
2023/12/26 02:09:11;;;;;;;1.58;1.10;;;13.20;61.50;;;;;;5054333;28;20032;-67
2023/12/26 02:11:40;;;;;;;1.98;1.10;;;13.20;62.20;;;;;;5054464;28;20036;-68
2023/12/26 02:14:06;;;;;;;1.00;0.90;;;13.20;62.70;;;;;;5053047;28;20041;-67
2023/12/26 02:16:37;;;;;;;1.20;1.00;;;13.20;63.10;;;;;;5053538;28;20358;-67
2023/12/26 02:19:03;;;;;;;0.95;0.75;;;13.10;63.60;;;;;;5054540;28;20458;-67
2023/12/26 02:21:29;;;;;;;1.58;0.88;;;13.10;64.00;;;;;;5054349;28;20025;-67
2023/12/26 02:23:55;;;;;;;0.98;0.80;;;13.00;64.40;;;;;;5054542;28;20032;-67
2023/12/26 02:26:27;;;;;;;1.48;0.90;;;13.00;64.60;;;;;;5054182;28;20108;-67
2023/12/26 02:28:53;;;;;;;1.23;0.82;;;12.90;64.60;;;;;;5054173;28;20021;-67
2023/12/26 02:31:20;;;;;;;2.95;0.90;;;12.90;64.80;;;;;;5053844;28;20087;-67
2023/12/26 02:33:47;;;;;;;1.25;0.90;;;12.80;64.90;;;;;;5054111;28;20370;-68
2023/12/26 02:36:14;;;;;;;1.35;0.80;;;12.80;65.10;;;;;;5054013;28;20055;-67
2023/12/26 02:38:40;;;;;;;1.10;0.88;;;12.80;65.20;;;;;;5055348;28;20032;-67
2023/12/26 02:41:05;;;;;;;1.52;0.75;;;12.70;65.50;;;;;;5072477;28;20111;-69
2023/12/26 02:43:33;;;;;;;0.90;0.80;;;12.70;65.80;;;;;;5074342;28;20103;-67
2023/12/26 02:45:59;;;;;;;1.40;1.00;;;12.70;66.00;;;;;;5074121;28;20131;-67
2023/12/26 02:48:24;;;;;;;2.03;0.90;;;12.60;66.20;;;;;;5073457;28;20070;-66
2023/12/26 02:50:50;;;;;;;1.08;0.90;;;12.60;66.40;;;;;;5073879;28;20047;-68
2023/12/26 02:53:16;;;;;;;1.48;1.00;;;12.60;66.50;;;;;;5073561;28;20112;-68
2023/12/26 02:55:42;;;;;;;1.75;0.90;;;12.50;66.40;;;;;;5073931;28;20043;-67
2023/12/26 02:58:07;;;;;;;1.02;0.70;;;12.50;66.40;;;;;;5073300;28;20016;-68
2023/12/26 03:00:33;;;;;;;1.67;1.30;;;12.50;66.50;;;;;;5073588;28;20048;-67
2023/12/26 03:02:59;;;;;;;0.70;0.63;;;12.40;66.20;;;;;;5073504;28;20031;-67
2023/12/26 03:05:24;;;;;;;0.93;0.70;;;12.40;65.80;;;;;;5073191;28;20024;-69
2023/12/26 03:07:50;;;;;;;1.42;0.90;;;12.40;65.50;;;;;;5073799;28;20130;-67
2023/12/26 03:10:16;;;;;;;1.05;0.70;;;12.40;65.20;;;;;;5073143;28;20102;-67
2023/12/26 03:12:41;;;;;;;1.52;0.93;;;12.40;65.00;;;;;;5073249;28;20149;-67
2023/12/26 03:15:10;;;;;;;0.93;0.77;;;12.30;64.80;;;;;;5073277;28;20029;-71
2023/12/26 03:17:35;;;;;;;1.42;0.98;;;12.30;65.20;;;;;;5055949;28;20037;-66
2023/12/26 03:20:01;;;;;;;1.58;0.82;;;12.30;64.20;;;;;;5053440;28;20513;-67
2023/12/26 03:22:27;;;;;;;2.17;0.95;;;12.30;64.20;;;;;;5052947;28;20025;-68
2023/12/26 03:24:53;;;;;;;1.90;0.90;;;12.30;63.80;;;;;;5053043;28;20055;-68
2023/12/26 03:27:18;;;;;;;1.00;0.82;;;12.30;62.60;;;;;;5052922;28;20029;-68
2023/12/26 03:29:44;;;;;;;1.48;0.90;;;12.30;61.40;;;;;;5053299;28;20020;-67
2023/12/26 03:32:10;;;;;;;1.25;0.70;;;12.30;60.00;;;;;;5052802;28;20028;-68
2023/12/26 03:34:39;;;;;;;0.95;0.63;;;12.30;57.90;;;;;;5053127;28;20377;-67
2023/12/26 03:37:05;;;;;;;1.02;0.70;;;12.30;57.30;;;;;;5053237;28;20037;-67
2023/12/26 03:39:32;;;;;;;0.98;0.68;;;12.40;57.30;;;;;;5052788;28;20109;-67
2023/12/26 03:41:57;;;;;;;1.02;0.55;;;12.40;56.20;;;;;;5053054;28;20108;-66
2023/12/26 03:44:23;;;;;;;1.33;0.70;;;12.40;55.10;;;;;;5052192;28;20104;-67
2023/12/26 03:46:49;;;;;;;0.80;0.60;;;12.40;53.30;;;;;;5052660;28;20099;-67
2023/12/26 03:49:14;;;;;;;1.00;0.75;;;12.40;52.20;;;;;;5052272;28;20078;-67
2023/12/26 03:51:40;;;;;;;0.80;0.70;;;12.50;51.50;;;;;;5052597;28;20024;-67
2023/12/26 03:54:06;;;;;;;1.52;0.70;;;12.50;51.00;;;;;;5052489;28;20065;-67
2023/12/26 03:56:33;;;;;;;0.80;0.70;;;12.50;51.40;;;;;;5052448;28;20032;-67
2023/12/26 03:58:59;;;;;;;1.23;0.65;;;12.50;51.20;;;;;;5052254;28;20048;-67
2023/12/26 04:01:25;;;;;;;0.75;0.70;;;12.50;50.80;;;;;;5052392;28;20466;-67
2023/12/26 04:03:50;;;;;;;1.30;0.98;;;12.50;49.50;;;;;;5052529;28;20044;-67
2023/12/26 04:06:16;;;;;;;2.92;0.60;;;12.50;49.40;;;;;;5050939;28;20021;-68
2023/12/26 04:08:42;;;;;;;1.17;0.70;;;12.50;48.40;;;;;;5051950;28;20478;-67
2023/12/26 04:11:12;;;;;;;2.55;0.82;;;12.60;47.30;;;;;;5052438;28;20102;-67
2023/12/26 04:13:38;;;;;;;0.85;0.70;;;12.60;46.90;;;;;;5052764;28;20098;-66
2023/12/26 04:16:04;;;;;;;0.80;0.60;;;12.70;46.90;;;;;;5052540;28;20041;-66
2023/12/26 04:18:30;;;;;;;1.15;0.65;;;12.70;46.80;;;;;;5052067;28;20036;-67
2023/12/26 04:20:56;;;;;;;1.17;0.80;;;12.70;46.70;;;;;;5052466;28;20029;-67
2023/12/26 04:23:21;;;;;;;1.08;0.52;;;12.70;47.00;;;;;;5051957;28;20036;-66
2023/12/26 04:25:47;;;;;;;2.20;0.90;;;12.70;46.70;;;;;;5052612;28;20394;-66
2023/12/26 04:28:13;;;;;;;0.60;0.50;;;12.70;46.60;;;;;;5051784;28;20029;-70
2023/12/26 04:30:40;;;;;;;0.80;0.70;;;12.60;46.90;;;;;;5053091;28;20064;-67
2023/12/26 04:33:07;;;;;;;0.95;0.70;;;12.70;47.10;;;;;;5070411;28;20060;-67
2023/12/26 04:35:33;;;;;;;1.85;0.82;;;12.60;47.10;;;;;;5071794;28;20123;-66
2023/12/26 04:37:59;;;;;;;2.10;0.75;;;12.60;47.70;;;;;;5071920;28;20435;-67
2023/12/26 04:40:26;;;;;;;2.22;0.95;;;12.60;47.20;;;;;;5071738;28;20021;-66
2023/12/26 04:42:51;;;;;;;0.77;0.60;;;12.60;47.20;;;;;;5072086;28;20066;-67
2023/12/26 04:45:17;;;;;;;0.80;0.65;;;12.50;47.30;;;;;;5071435;28;20155;-66
2023/12/26 04:47:43;;;;;;;1.67;0.60;;;12.50;47.30;;;;;;5072378;28;20154;-66
2023/12/26 04:50:09;;;;;;;1.45;0.90;;;12.50;46.50;;;;;;5072015;28;20075;-67
2023/12/26 04:52:35;;;;;;;1.17;0.80;;;12.50;47.40;;;;;;5071663;28;20032;-67
2023/12/26 04:55:01;;;;;;;0.98;0.60;;;12.50;47.70;;;;;;5070534;28;20032;-67
2023/12/26 04:57:26;;;;;;;1.17;0.77;;;12.40;47.20;;;;;;5072799;28;20159;-66
2023/12/26 04:59:52;;;;;;;0.77;0.50;;;12.50;47.50;;;;;;5076199;28;20056;-67
2023/12/26 05:02:18;;;;;;;1.63;0.50;;;12.40;47.10;;;;;;5075656;28;20350;-67
2023/12/26 05:04:43;;;;;;;3.53;0.90;;;12.40;47.40;;;;;;5076233;28;20438;-67
2023/12/26 05:07:09;;;;;;;0.68;0.57;;;12.40;47.20;;;;;;5076016;28;20024;-67
2023/12/26 05:09:35;;;;;;;0.75;0.60;;;12.40;47.20;;;;;;5075373;28;20094;-67
2023/12/26 05:12:01;;;;;;;0.93;0.80;;;12.40;47.00;;;;;;5075953;28;20032;-67
2023/12/26 05:14:26;;;;;;;1.08;0.70;;;12.40;47.00;;;;;;5075432;28;20025;-67
2023/12/26 05:16:52;;;;;;;2.45;0.80;;;12.40;47.20;;;;;;5075795;28;20078;-67
2023/12/26 05:19:18;;;;;;;1.48;0.70;;;12.30;47.10;;;;;;5074024;28;20024;-68
2023/12/26 05:21:44;;;;;;;1.98;0.80;;;12.30;47.80;;;;;;5074248;28;20509;-67
2023/12/26 05:24:09;;;;;;;0.95;0.80;;;12.30;46.90;;;;;;5055547;28;20029;-67
2023/12/26 05:26:42;;;;;;;1.35;0.80;;;12.30;46.50;;;;;;5055241;28;20059;-66
2023/12/26 05:29:09;;;;;;;1.13;0.80;;;12.30;46.80;;;;;;5055521;28;20032;-66
2023/12/26 05:31:35;;;;;;;1.08;0.77;;;12.30;47.00;;;;;;5055028;28;20026;-67
2023/12/26 05:34:03;;;;;;;1.30;0.80;;;12.30;46.70;;;;;;5055405;28;20039;-67
2023/12/26 05:36:29;;;;;;;2.90;1.05;;;12.30;46.50;;;;;;5055010;28;20535;-67
2023/12/26 05:38:54;;;;;;;1.20;0.70;;;12.30;46.40;;;;;;5055307;28;20116;-67
2023/12/26 05:41:20;;;;;;;2.85;0.90;;;12.30;46.10;;;;;;5054915;28;20114;-67
2023/12/26 05:43:46;;;;;;;1.13;0.70;;;12.30;45.70;;;;;;5055429;28;20470;-67
2023/12/26 05:46:11;;;;;;;3.67;0.93;;;12.40;45.80;;;;;;5054031;28;20079;-68
2023/12/26 05:48:37;;;;;;;1.67;0.82;;;12.40;45.90;;;;;;5053565;28;20025;-67
2023/12/26 05:51:05;;;;;;;1.10;0.80;;;12.40;45.40;;;;;;5055281;28;20112;-67
2023/12/26 05:53:30;;;;;;;1.15;0.90;;;12.40;44.90;;;;;;5054732;28;20025;-67
2023/12/26 05:55:57;;;;;;;2.90;0.77;;;12.50;44.60;;;;;;5055102;28;20095;-66
2023/12/26 05:58:23;;;;;;;0.82;0.70;;;12.50;44.80;;;;;;5054414;28;20033;-67
2023/12/26 06:00:49;;;;;;;0.88;0.63;;;12.50;44.30;;;;;;5055215;28;20452;-67
2023/12/26 06:03:15;;;;;;;0.70;0.70;;;12.50;44.40;;;;;;5054995;28;20119;-67
2023/12/26 06:05:40;;;;;;;0.80;0.60;;;12.50;44.50;;;;;;5054268;28;20435;-67
2023/12/26 06:08:07;;;;;;;1.25;0.93;;;12.60;44.60;;;;;;5054121;28;20465;-67
2023/12/26 06:10:32;;;;;;;0.80;0.80;;;12.60;44.30;;;;;;5054032;28;20442;-67
2023/12/26 06:12:58;;;;;;;3.88;0.82;;;12.60;44.50;;;;;;5054307;28;20101;-67
2023/12/26 06:15:24;;;;;;;1.35;0.80;;;12.50;44.70;;;;;;5054128;28;20029;-68
2023/12/26 06:17:50;;;;;;;0.95;0.80;;;12.60;44.60;;;;;;5053987;28;20013;-67
2023/12/26 06:20:15;;;;;;;0.98;0.80;;;12.60;44.50;;;;;;5054517;28;20539;-67
2023/12/26 06:22:41;;;;;;;2.22;1.10;;;12.60;44.50;;;;;;5054154;28;20410;-67
2023/12/26 06:25:07;;;;;;;1.75;1.00;;;12.50;44.50;;;;;;5054554;28;20104;-67
2023/12/26 06:27:33;;;;;;;1.50;1.02;;;12.60;44.80;;;;;;5054193;28;20025;-67
2023/12/26 06:29:59;;;;;;;1.50;0.80;;;12.50;44.60;;;;;;5054477;28;20501;-66
2023/12/26 06:32:25;;;;;;;1.52;1.05;;;12.50;44.60;;;;;;5053946;28;20025;-66
2023/12/26 06:34:51;;;;;;;1.55;1.15;;;12.50;44.70;;;;;;5054249;28;20037;-67
2023/12/26 06:37:16;;;;;;;1.45;1.02;;;12.50;44.60;;;;;;5054347;28;20025;-67
2023/12/26 06:39:43;;;;;;;1.67;0.90;;;12.60;44.80;;;;;;5053655;28;20750;-68
2023/12/26 06:42:12;;;;;;;2.03;0.93;;;12.60;44.50;;;;;;5064396;28;20082;-66
2023/12/26 06:44:38;;;;;;;1.45;0.80;;;12.50;44.90;;;;;;5073682;28;20470;-67
2023/12/26 06:47:03;;;;;;;3.78;1.00;;;12.50;45.60;;;;;;5074053;28;20020;-68
2023/12/26 06:49:29;;;;;;;1.92;1.05;;;12.50;44.80;;;;;;5073475;28;20021;-67
2023/12/26 06:51:55;;;;;;;1.33;1.00;;;12.60;44.80;;;;;;5074108;28;20106;-67
2023/12/26 06:54:20;;;;;;;2.15;1.20;;;12.60;44.80;;;;;;5055482;28;20104;-67
2023/12/26 06:56:46;;;;;;;1.80;1.17;;;12.60;44.30;;;;;;5052706;28;20041;-67
2023/12/26 06:59:12;;;;;;;3.65;1.73;;;12.60;44.50;;;;;;5053177;28;20451;-67
2023/12/26 07:01:37;;;;;;;2.58;1.20;;;12.60;44.90;;;;;;5052881;28;20033;-67
2023/12/26 07:04:03;;;;;;;1.38;0.80;;;12.60;44.50;;;;;;5053220;28;20405;-68
2023/12/26 07:06:29;;;;;;;1.30;0.70;;;12.60;44.60;;;;;;5053071;28;20036;-68
2023/12/26 07:08:54;;;;;;;1.38;0.82;;;12.60;44.60;;;;;;5053232;28;20479;-68
2023/12/26 07:11:20;;;;;;;1.30;0.88;;;12.60;44.90;;;;;;5053318;28;20482;-68
2023/12/26 07:13:45;;;;;;;0.70;0.70;;;12.70;44.70;;;;;;5052698;28;20045;-67
2023/12/26 07:16:11;;;;;;;1.88;1.00;;;12.70;44.40;;;;;;5053197;28;20039;-67
2023/12/26 07:18:37;;;;;;;2.28;1.00;;;12.70;43.90;;;;;;5052706;28;20365;-67
2023/12/26 07:21:02;;;;;;;1.30;1.17;;;12.80;44.10;;;;;;5052097;28;20021;-67
2023/12/26 07:23:29;;;;;;;3.15;1.00;;;12.80;44.20;;;;;;5051241;28;20029;-69
2023/12/26 07:25:54;;;;;;;3.97;1.23;;;12.80;44.40;;;;;;5052679;28;20474;-67
2023/12/26 07:28:20;;;;;;;3.20;0.80;;;12.80;44.40;;;;;;5052484;28;20132;-67
2023/12/26 07:30:46;;;;;;;1.23;0.90;;;12.80;44.60;;;;;;5052214;28;20025;-67
2023/12/26 07:33:11;;;;;;;2.67;0.90;;;12.80;44.50;;;;;;5053004;28;20082;-67
2023/12/26 07:35:38;;;;;;;1.55;1.13;;;12.80;44.60;;;;;;5052523;28;20051;-66
2023/12/26 07:38:04;;;;;;;2.90;1.05;;;12.80;44.60;;;;;;5052831;28;20111;-67
2023/12/26 07:40:31;;;;;;;2.20;1.20;;;12.80;44.90;;;;;;5052266;28;20381;-68
2023/12/26 07:42:57;;;;;;;2.30;1.40;;;12.80;44.80;;;;;;5053037;28;20029;-67
2023/12/26 07:45:24;;;;;;;2.20;1.20;;;12.80;45.00;;;;;;5052871;28;20462;-67
2023/12/26 07:47:51;;;;;;;2.38;1.13;;;12.80;44.90;;;;;;5052496;28;20035;-68
2023/12/26 07:50:16;;;;;;;1.83;1.00;;;12.80;44.90;;;;;;5053067;28;20033;-68
2023/12/26 07:52:42;;;;;;;2.88;1.10;;;12.80;45.00;;;;;;5052901;28;20036;-68
2023/12/26 07:55:08;;;;;;;2.38;0.63;;;12.80;45.40;;;;;;5052908;28;20463;-67
2023/12/26 07:57:33;;;;;;;1.77;0.93;;;12.80;45.70;;;;;;5051864;28;20077;-67
2023/12/26 07:59:59;;;;;;;2.97;0.93;;;12.80;45.90;;;;;;5051986;28;20051;-66
2023/12/26 08:02:25;;;;;;;1.67;0.90;;;12.80;46.20;;;;;;5052481;28;20060;-66
2023/12/26 08:04:50;;;;;;;1.85;0.98;;;12.80;46.40;;;;;;5051797;28;20036;-67
2023/12/26 08:07:16;;;;;;;2.05;0.98;;;12.80;46.70;;;;;;5051901;28;20029;-66
2023/12/26 08:09:42;;;;;;;1.38;0.80;;;12.70;46.80;;;;;;5050971;28;20091;-66
2023/12/26 08:12:08;;;;;;;1.35;0.82;;;12.70;46.80;;;;;;5051762;28;20024;-66
2023/12/26 08:14:34;;;;;;;1.95;1.25;;;12.70;47.00;;;;;;5051582;28;20087;-66
2023/12/26 08:17:00;;;;;;;2.25;1.02;;;12.70;47.00;;;;;;5052092;28;20029;-66
2023/12/26 08:19:25;;;;;;;1.73;1.00;;;12.70;47.00;;;;;;5049446;28;20048;-67
2023/12/26 08:21:51;;;;;;;2.17;1.10;;;12.60;47.20;;;;;;5051830;28;20020;-66
2023/12/26 08:24:17;;;;;;;1.33;0.95;;;12.60;47.40;;;;;;5051818;28;20446;-66
2023/12/26 08:26:42;;;;;;;2.08;1.00;;;12.60;47.80;;;;;;5051748;28;20032;-66
2023/12/26 08:29:08;;;;;;;2.10;1.00;;;12.60;48.00;;;;;;5051792;28;20029;-67
2023/12/26 08:31:33;;;;;;;1.55;0.90;;;12.60;47.90;;;;;;5051269;28;20017;-67
2023/12/26 08:33:59;;;;;;;1.00;0.90;;;12.50;48.00;;;;;;5050859;28;20048;-66
2023/12/26 08:36:25;;;;;;;1.13;0.90;;;12.50;48.40;;;;;;5049044;28;20503;-66
2023/12/26 08:38:51;;;;;;;3.75;1.25;;;12.50;48.60;;;;;;5051651;28;20029;-66
2023/12/26 08:41:16;;;;;;;1.88;1.20;;;12.50;48.50;;;;;;5052415;28;20082;-68
2023/12/26 08:43:42;;;;;;;1.98;1.27;;;12.50;48.90;;;;;;5051821;28;20039;-69
2023/12/26 08:46:08;;;;;;;1.92;1.15;;;12.50;49.00;;;;;;5050990;28;20025;-71
2023/12/26 08:48:33;;;;;;;1.30;0.98;;;12.50;49.10;;;;;;5051711;28;20033;-73
2023/12/26 08:50:59;;;;;;;1.70;1.25;;;12.50;49.20;;;;;;5052030;28;20096;-68
2023/12/26 08:53:25;;;;;;;1.50;1.10;;;12.50;49.30;;;;;;5051895;28;20440;-69
2023/12/26 08:55:50;;;;;;;3.63;1.38;;;12.60;49.00;;;;;;5051277;28;20029;-69
2023/12/26 08:58:16;;;;;;;3.58;1.13;;;12.60;49.00;;;;;;5051564;28;20045;-68
2023/12/26 09:00:44;;;;;;;1.88;0.80;;;12.60;49.30;;;;;;5051138;28;20132;-70
2023/12/26 09:03:11;;;;;;;3.90;1.10;;;12.70;48.60;;;;;;5051499;28;20037;-69
2023/12/26 09:05:37;;;;;;;1.92;0.95;;;12.70;48.40;;;;;;5051128;28;20029;-70
2023/12/26 09:08:03;;;;;;;1.52;1.02;;;12.70;48.40;;;;;;5051998;28;20107;-67
2023/12/26 09:10:28;;;;;;;1.85;1.13;;;12.70;48.70;;;;;;5051931;28;20112;-70
2023/12/26 09:12:54;;;;;;;1.52;0.90;;;12.70;48.80;;;;;;5050660;28;20489;-69
2023/12/26 09:15:19;;;;;;;1.88;1.05;;;12.70;48.90;;;;;;5051351;28;20048;-70
2023/12/26 09:17:45;;;;;;;1.40;0.90;;;12.70;49.20;;;;;;5051342;28;20108;-70
2023/12/26 09:20:11;;;;;;;2.97;1.10;;;12.70;49.50;;;;;;5053636;28;20115;-69
2023/12/26 09:22:37;;;;;;;1.90;0.90;;;12.70;49.90;;;;;;5056578;28;20036;-78
2023/12/26 09:25:02;;;;;;;4.55;1.27;;;12.60;50.20;;;;;;5051987;28;20035;-71
2023/12/26 09:27:28;;;;;;;1.63;0.90;;;12.60;50.40;;;;;;5060094;28;20548;-69
2023/12/26 09:29:54;;;;;;;2.25;0.85;;;12.60;50.90;;;;;;5055364;28;20112;-71
2023/12/26 09:32:20;;;;;;;3.47;1.00;;;12.50;51.00;;;;;;5058437;28;20096;-70
2023/12/26 09:34:45;;;;;;;2.08;0.90;;;12.50;51.70;;;;;;5057529;28;20029;-69
2023/12/26 09:37:11;;;;;;;2.03;1.00;;;12.50;52.60;;;;;;5059292;28;20089;-71
2023/12/26 09:39:37;;;;;;;1.25;0.80;;;12.50;53.20;;;;;;5062164;28;20362;-69
2023/12/26 09:42:03;;;;;;;1.27;0.70;;;12.40;54.10;;;;;;5063868;28;20024;-70
2023/12/26 09:44:29;;;;;;;2.25;0.90;;;12.40;55.50;;;;;;5068193;28;20051;-70
2023/12/26 09:46:55;;;;;;;3.30;1.10;;;12.30;56.10;;;;;;5068738;28;20457;-70
2023/12/26 09:49:21;;;;;;;2.20;1.02;;;12.30;56.80;;;;;;5069313;28;20092;-70
2023/12/26 09:51:50;;;;;;;1.63;1.02;;;12.20;57.60;;;;;;5067409;28;20147;-71
2023/12/26 09:54:20;;;;;;;1.58;1.02;;;12.10;58.10;;;;;;5060598;28;20380;-70
2023/12/26 09:56:46;;;;;;;3.45;0.90;;;12.00;58.70;;;;;;5064006;28;20020;-68
2023/12/26 09:59:12;;;;;;;2.00;0.90;;;11.90;60.40;;;;;;5061254;28;20052;-69
2023/12/26 10:01:38;;;;;;;1.30;1.00;;;11.90;59.30;;;;;;5062229;28;20465;-69
2023/12/26 10:04:05;;;;;;;1.77;1.00;;;11.80;59.80;;;;;;5063809;28;20086;-69
2023/12/26 10:06:31;;;;;;;2.72;1.10;;;11.80;60.00;;;;;;5064513;28;20031;-70
2023/12/26 10:08:57;;;;;;;4.05;1.20;;;11.80;60.30;;;;;;5065609;28;20104;-69
2023/12/26 10:11:24;;;;;;;2.17;0.90;;;11.70;60.60;;;;;;5063904;28;20388;-70
2023/12/26 10:13:58;;;;;;;4.25;1.10;;;11.70;61.00;;;;;;5065713;28;20041;-70
2023/12/26 10:16:23;;;;;;;3.83;1.00;;;11.70;61.30;;;;;;5067715;28;20033;-67
2023/12/26 10:18:52;;;;;;;5.07;1.02;;;11.60;62.30;;;;;;5068030;28;20029;-69
2023/12/26 10:21:17;;;;;;;2.65;0.93;;;11.50;62.00;;;;;;5064360;28;20040;-69
2023/12/26 10:23:45;;;;;;;2.05;0.90;;;11.50;62.40;;;;;;5055665;28;20021;-70
2023/12/26 10:26:11;;;;;;;2.25;1.08;;;11.50;62.70;;;;;;5056848;28;20037;-70
2023/12/26 10:28:41;;;;;;;3.70;1.15;;;11.40;63.10;;;;;;5060572;28;20078;-69
2023/12/26 10:31:11;;;;;;;2.40;1.00;;;11.40;63.60;;;;;;5064697;28;20028;-69
2023/12/26 10:33:37;;;;;;;3.70;1.27;;;11.40;63.90;;;;;;5064066;28;20086;-71
2023/12/26 10:36:06;;;;;;;2.85;1.30;;;11.30;64.20;;;;;;5063850;28;20261;-69
2023/12/26 10:38:32;;;;;;;2.63;1.08;;;11.30;65.00;;;;;;5062642;28;20096;-69
2023/12/26 10:41:07;;;;;;;2.13;1.10;;;11.30;64.60;;;;;;5064738;28;20024;-70
2023/12/26 10:43:33;;;;;;;3.22;1.27;;;11.30;64.80;;;;;;5062806;28;20466;-68
2023/12/26 10:45:59;;;;;;;2.95;1.15;;;11.30;65.00;;;;;;5063728;28;20029;-69
2023/12/26 10:48:31;;;;;;;1.95;1.05;;;11.30;65.20;;;;;;5064363;28;20427;-71
2023/12/26 10:51:00;;;;;;;2.15;1.10;;;11.30;65.40;;;;;;5062618;28;20025;-69
2023/12/26 10:53:36;;;;;;;2.08;1.13;;;11.30;65.70;;;;;;5054277;28;20120;-69
2023/12/26 10:56:03;;;;;;;3.78;1.30;;;11.30;65.80;;;;;;5066933;28;20048;-69
2023/12/26 10:58:31;;;;;;;2.58;1.15;;;11.30;66.00;;;;;;5067766;28;20029;-70
2023/12/26 11:00:58;;;;;;;5.38;1.50;;;11.30;66.30;;;;;;5073238;28;20109;-69
2023/12/26 13:51:24;;;;;;;2.53;1.35;;;11.20;74.50;;;;;;5055297;28;20039;-71
2023/12/26 13:54:27;;;;;;;4.55;1.70;;;11.20;74.60;;;;;;5054916;28;20167;-70
2023/12/26 13:57:30;;;;;;;2.40;1.20;;;11.10;75.00;;;;;;5055080;28;20036;-68
2023/12/26 14:00:33;;;;;;;3.35;1.30;;;11.10;75.00;;;;;;5054647;28;20056;-73
2023/12/26 14:03:37;;;;;;;3.53;1.70;;;11.10;75.20;;;;;;5054413;28;20501;-70
2023/12/26 14:06:39;;;;;;;3.25;1.20;;;11.10;75.20;;;;;;5054620;28;20029;-69
2023/12/26 14:09:43;;;;;;;2.13;1.20;;;11.10;75.40;;;;;;5054057;28;20017;-69
2023/12/26 14:12:46;;;;;;;4.35;1.52;;;11.10;75.80;;;;;;5054036;28;20351;-70
2023/12/26 14:15:49;;;;;;;4.63;1.40;;;11.10;76.00;;;;;;5054090;28;20037;-70
2023/12/26 14:18:52;;;;;;;6.13;1.52;;;11.10;76.10;;;;;;5054305;28;20025;-68
2023/12/26 14:21:55;;;;;;;3.55;1.30;;;11.10;76.50;;;;;;5054163;28;20033;-69
2023/12/26 14:24:58;;;;;;;4.57;1.15;;;11.10;76.70;;;;;;5054093;28;20098;-67
2023/12/26 14:28:01;;;;;;;2.83;1.30;;;11.00;76.80;;;;;;5054579;28;20133;-69
2023/12/26 14:31:04;;;;;;;3.95;1.30;;;11.00;76.90;;;;;;5053791;28;20025;-69
2023/12/26 14:34:07;;;;;;;3.60;1.05;;;11.00;76.90;;;;;;5053442;28;20033;-70
2023/12/26 14:37:11;;;;;;;2.67;1.30;;;11.00;76.80;;;;;;5054168;28;20056;-68
2023/12/26 14:40:14;;;;;;;5.53;1.95;;;10.90;76.90;;;;;;5056253;28;20081;-69
2023/12/26 14:43:17;;;;;;;5.55;2.03;;;10.90;76.80;;;;;;5052595;28;20056;-69
2023/12/26 14:46:20;;;;;;;3.72;1.35;;;10.90;77.10;;;;;;5054001;28;20025;-68
2023/12/26 14:49:23;;;;;;;4.20;1.35;;;10.90;77.00;;;;;;5054139;28;20033;-69
2023/12/26 14:52:26;;;;;;;5.20;1.38;;;10.90;77.30;;;;;;5053893;28;20036;-70
2023/12/26 14:55:29;;;;;;;3.75;1.40;;;10.90;77.40;;;;;;5051331;28;20035;-68
2023/12/26 14:58:32;;;;;;;6.47;1.42;;;10.90;77.30;;;;;;5053022;28;20025;-67
2023/12/26 15:01:35;;;;;;;3.65;1.40;;;10.90;77.50;;;;;;5048975;28;20033;-68
2023/12/26 15:04:00;;;;;;;5.47;1.63;;;10.90;77.40;;;;;;5050981;28;20033;-69
2023/12/26 15:06:26;;;;;;;4.10;1.45;;;10.90;77.60;;;;;;5052602;28;20523;-69
2023/12/26 15:08:51;;;;;;;3.35;1.25;;;11.00;77.60;;;;;;5052523;28;20025;-69
2023/12/26 15:11:17;;;;;;;2.35;1.25;;;11.00;77.70;;;;;;5051910;28;20082;-70
2023/12/26 15:13:43;;;;;;;4.68;1.40;;;11.00;77.60;;;;;;5052600;28;20175;-69
2023/12/26 15:16:17;;;;;;;2.97;1.17;;;11.00;77.60;;;;;;5052369;28;20029;-67
2023/12/26 15:18:43;;;;;;;2.55;1.27;;;11.00;77.60;;;;;;5050985;28;20017;-69
2023/12/26 15:21:08;;;;;;;3.13;1.35;;;11.00;77.70;;;;;;5048796;28;20033;-70
2023/12/26 15:23:34;;;;;;;3.42;1.30;;;11.00;77.70;;;;;;5052654;28;20067;-69
2023/12/26 15:26:00;;;;;;;2.75;1.42;;;11.00;77.90;;;;;;5052668;28;20071;-69
2023/12/26 15:28:25;;;;;;;2.55;1.10;;;11.00;77.90;;;;;;5051068;28;20031;-70
2023/12/26 15:30:51;;;;;;;2.95;1.40;;;11.00;78.00;;;;;;5052803;28;20025;-69
2023/12/26 15:33:19;;;;;;;5.70;1.45;;;11.10;78.00;;;;;;5052698;28;20031;-69
2023/12/26 15:35:45;;;;;;;1.90;1.00;;;11.10;78.10;;;;;;5050798;28;20075;-70
2023/12/26 15:38:11;;;;;;;2.97;1.27;;;11.10;78.10;;;;;;5052022;28;20453;-69
2023/12/26 15:40:36;;;;;;;3.45;1.73;;;11.10;78.20;;;;;;5051993;28;20032;-68
2023/12/26 15:43:02;;;;;;;2.20;1.40;;;11.10;78.20;;;;;;5052379;28;20048;-68